createdAt,value
2022-09-05T00:00:22.369Z,14.15
2022-09-05T00:03:08.058Z,12.38
2022-09-05T00:05:54.085Z,12.07
2022-09-05T00:09:06.474Z,16.35
2022-09-05T00:11:58.509Z,14.20
2022-09-05T00:15:15.980Z,12.88
2022-09-05T00:19:27.043Z,10.98
2022-09-05T00:24:25.192Z,13.43
2022-09-05T00:24:45.605Z,13.38
2022-09-05T00:27:19.932Z,16.95
2022-09-05T00:31:06.906Z,14.13
2022-09-05T00:33:39.548Z,11.65
2022-09-05T00:36:30.237Z,16.98
2022-09-05T00:39:01.882Z,18.63
2022-09-05T00:41:34.142Z,18.00
2022-09-05T00:44:03.058Z,18.88
2022-09-05T00:46:36.016Z,12.75
2022-09-05T00:49:19.937Z,15.77
2022-09-05T00:52:14.985Z,16.52
2022-09-05T00:55:06.541Z,12.40
2022-09-05T00:57:46.769Z,12.95
2022-09-05T01:00:59.196Z,19.05
2022-09-05T01:03:35.317Z,15.85
2022-09-05T01:06:08.901Z,14.15
2022-09-05T01:08:51.025Z,12.27
2022-09-05T01:11:44.068Z,15.77
2022-09-05T01:14:30.262Z,16.13
2022-09-05T01:17:18.818Z,15.50
2022-09-05T01:20:19.677Z,18.67
2022-09-05T01:23:08.454Z,13.05
2022-09-05T01:25:55.214Z,18.92
2022-09-05T01:29:16.145Z,18.13
2022-09-05T01:31:48.232Z,14.23
2022-09-05T01:34:52.593Z,14.77
2022-09-05T01:37:24.847Z,13.43
2022-09-05T01:40:19.932Z,22.85
2022-09-05T01:43:01.683Z,21.92
2022-09-05T01:45:39.486Z,20.30
2022-09-05T01:48:06.839Z,18.10
2022-09-05T01:50:39.410Z,20.92
2022-09-05T01:53:25.555Z,15.80
2022-09-05T01:56:05.808Z,20.13
2022-09-05T01:58:44.764Z,20.42
2022-09-05T02:01:31.626Z,19.63
2022-09-05T02:04:22.613Z,16.80
2022-09-05T02:10:38.462Z,19.58
2022-09-05T02:13:26.174Z,13.93
2022-09-05T02:16:32.608Z,14.88
2022-09-05T02:19:16.123Z,17.40
2022-09-05T02:21:58.909Z,19.67
2022-09-05T02:24:46.989Z,19.55
2022-09-05T02:28:03.971Z,21.48
2022-09-05T02:30:24.555Z,19.83
2022-09-05T02:32:56.361Z,24.02
2022-09-05T02:35:29.575Z,15.35
2022-09-05T02:39:13.530Z,17.48
2022-09-05T02:45:10.984Z,23.30
2022-09-05T02:45:13.411Z,16.65
2022-09-05T02:47:05.622Z,23.73
2022-09-05T02:54:05.776Z,17.85
2022-09-05T02:57:27.324Z,21.23
2022-09-05T02:57:36.377Z,21.50
2022-09-05T02:59:10.373Z,24.40
2022-09-05T03:02:26.210Z,20.17
2022-09-05T03:05:06.096Z,22.50
2022-09-05T03:08:10.319Z,20.48
2022-09-05T03:11:02.356Z,22.08
2022-09-05T03:13:31.840Z,14.52
2022-09-05T03:16:23.292Z,19.35
2022-09-05T03:19:17.779Z,17.27
2022-09-05T03:21:56.774Z,16.08
2022-09-05T03:24:55.663Z,19.73
2022-09-05T03:27:44.161Z,12.02
2022-09-05T03:30:44.000Z,15.10
2022-09-05T03:33:22.203Z,10.52
2022-09-05T03:36:23.252Z,15.77
2022-09-05T03:39:30.321Z,12.02
2022-09-05T03:42:14.757Z,13.55
2022-09-05T03:45:36.580Z,12.50
2022-09-05T03:48:30.807Z,14.90
2022-09-05T03:57:06.563Z,14.50
2022-09-05T03:57:16.237Z,13.45
2022-09-05T03:57:42.547Z,10.38
2022-09-05T04:00:21.017Z,10.60
2022-09-05T04:08:06.721Z,9.43
2022-09-05T04:08:15.654Z,11.20
2022-09-05T04:09:49.915Z,9.63
2022-09-05T04:12:33.079Z,9.75
2022-09-05T04:15:12.145Z,10.07
2022-09-05T04:18:04.198Z,11.63
2022-09-05T04:20:56.502Z,9.60
2022-09-05T04:23:43.790Z,11.40
2022-09-05T04:26:34.592Z,10.63
2022-09-05T04:29:42.669Z,10.93
2022-09-05T04:32:45.931Z,8.68
2022-09-05T04:35:28.856Z,10.25
2022-09-05T04:38:49.334Z,10.55
2022-09-05T04:41:37.750Z,10.27
2022-09-05T04:44:44.469Z,10.88
2022-09-05T04:47:20.416Z,9.05
2022-09-05T04:50:26.379Z,7.93
2022-09-05T04:53:29.254Z,12.27
2022-09-05T04:55:58.093Z,9.85
2022-09-05T04:59:41.870Z,10.82
2022-09-05T05:06:02.571Z,8.75
2022-09-05T05:06:12.052Z,9.18
2022-09-05T05:07:54.904Z,11.13
2022-09-05T05:14:04.011Z,11.65
2022-09-05T05:18:03.084Z,9.00
2022-09-05T05:18:13.921Z,9.02
2022-09-05T05:19:47.290Z,11.88
2022-09-05T05:22:26.375Z,11.63
2022-09-05T05:24:56.801Z,12.77
2022-09-05T05:27:27.923Z,10.98
2022-09-05T05:30:32.705Z,9.48
2022-09-05T05:33:28.183Z,10.93
2022-09-05T05:35:58.651Z,10.50
2022-09-05T05:38:53.591Z,8.50
2022-09-05T05:41:27.078Z,8.50
2022-09-05T05:43:54.177Z,7.95
2022-09-05T05:46:30.913Z,11.35
2022-09-05T05:49:11.232Z,9.60
2022-09-05T05:52:05.890Z,11.77
2022-09-05T05:55:11.306Z,9.07
2022-09-05T05:58:16.182Z,7.80
2022-09-05T06:00:55.079Z,9.25
2022-09-05T06:03:53.130Z,9.95
2022-09-05T06:06:51.670Z,10.57
2022-09-05T06:14:55.912Z,11.82
2022-09-05T06:14:57.248Z,10.32
2022-09-05T06:16:37.871Z,6.72
2022-09-05T06:21:39.017Z,10.65
2022-09-05T06:23:38.928Z,9.95
2022-09-05T06:26:37.750Z,9.00
2022-09-05T06:29:37.997Z,10.13
2022-09-05T06:32:26.809Z,9.27
2022-09-05T06:35:23.193Z,9.07
2022-09-05T06:38:16.199Z,11.70
2022-09-05T06:41:19.613Z,9.57
2022-09-05T06:44:39.983Z,8.25
2022-09-05T06:47:23.810Z,9.60
2022-09-05T06:50:24.224Z,9.63
2022-09-05T06:53:27.666Z,8.25
2022-09-05T06:56:25.561Z,7.80
2022-09-05T06:59:18.084Z,10.10
2022-09-05T07:02:00.449Z,10.45
2022-09-05T07:05:37.082Z,9.75
2022-09-05T07:08:25.128Z,9.38
2022-09-05T07:11:20.265Z,11.05
2022-09-05T07:13:56.442Z,8.27
2022-09-05T07:16:37.399Z,9.32
2022-09-05T07:19:25.516Z,8.57
2022-09-05T07:25:05.567Z,7.65
2022-09-05T07:28:07.317Z,9.95
2022-09-05T07:30:28.814Z,8.13
2022-09-05T07:32:58.276Z,9.68
2022-09-05T07:35:41.374Z,9.07
2022-09-05T07:38:15.967Z,11.18
2022-09-05T07:40:52.746Z,10.57
2022-09-05T07:43:27.115Z,8.95
2022-09-05T07:46:11.417Z,9.30
2022-09-05T07:48:56.017Z,8.95
2022-09-05T07:56:46.499Z,8.15
2022-09-05T07:56:59.941Z,8.23
2022-09-05T07:57:27.002Z,9.38
2022-09-05T08:00:03.145Z,9.60
2022-09-05T08:02:46.959Z,8.60
2022-09-05T08:05:23.613Z,8.13
2022-09-05T08:08:09.216Z,10.05
2022-09-05T08:11:24.163Z,9.18
2022-09-05T08:13:42.671Z,9.02
2022-09-05T08:16:19.493Z,11.82
2022-09-05T08:18:56.740Z,10.77
2022-09-05T08:21:30.414Z,9.38
2022-09-05T08:24:13.738Z,12.52
2022-09-05T08:26:59.665Z,11.38
2022-09-05T08:29:41.868Z,10.68
2022-09-05T08:32:15.847Z,10.07
2022-09-05T08:35:20.454Z,10.95
2022-09-05T08:37:50.301Z,12.20
2022-09-05T08:40:54.877Z,10.80
2022-09-05T08:46:26.817Z,7.65
2022-09-05T08:47:05.645Z,9.02
2022-09-05T08:50:00.643Z,11.45
2022-09-05T08:52:56.816Z,8.70
2022-09-05T08:55:39.261Z,8.30
2022-09-05T08:58:43.721Z,9.00
2022-09-05T09:01:10.664Z,10.38
2022-09-05T09:03:56.815Z,9.35
2022-09-05T09:07:36.710Z,9.43
2022-09-05T09:09:59.633Z,6.47
2022-09-05T09:12:29.041Z,7.65
2022-09-05T09:15:11.748Z,9.43
2022-09-05T09:17:45.545Z,10.40
2022-09-05T09:20:20.962Z,8.27
2022-09-05T09:23:03.276Z,8.45
2022-09-05T09:25:45.967Z,9.52
2022-09-05T09:29:03.992Z,7.38
2022-09-05T09:31:58.999Z,10.02
2022-09-05T09:34:25.787Z,7.63
2022-09-05T09:37:49.902Z,8.90
2022-09-05T09:41:00.708Z,7.78
2022-09-05T09:43:52.984Z,8.93
2022-09-05T09:46:39.244Z,9.93
2022-09-05T09:49:31.896Z,10.35
2022-09-05T09:52:24.618Z,9.32
2022-09-05T09:55:28.503Z,8.70
2022-09-05T09:58:13.993Z,11.20
2022-09-05T10:00:51.360Z,8.63
2022-09-05T10:08:26.957Z,8.27
2022-09-05T10:10:44.180Z,7.88
2022-09-05T10:10:45.323Z,7.80
2022-09-05T10:13:27.344Z,7.97
2022-09-05T10:16:25.482Z,7.68
2022-09-05T10:20:07.401Z,9.52
2022-09-05T10:25:23.841Z,8.27
2022-09-05T10:28:21.211Z,9.82
2022-09-05T10:33:24.243Z,9.32
2022-09-05T10:35:17.244Z,10.15
2022-09-05T10:37:19.086Z,9.40
2022-09-05T10:39:51.394Z,7.10
2022-09-05T10:42:30.232Z,7.32
2022-09-05T10:44:58.164Z,9.55
2022-09-05T10:47:47.878Z,6.07
2022-09-05T10:50:30.167Z,8.07
2022-09-05T10:52:57.749Z,6.68
2022-09-05T10:55:54.662Z,6.80
2022-09-05T10:59:51.703Z,6.57
2022-09-05T11:02:27.746Z,9.20
2022-09-05T11:04:58.102Z,8.27
2022-09-05T11:07:48.020Z,7.95
2022-09-05T11:10:36.511Z,8.75
2022-09-05T11:13:18.169Z,7.25
2022-09-05T11:16:13.380Z,9.55
2022-09-05T11:18:58.937Z,8.90
2022-09-05T11:21:44.575Z,5.75
2022-09-05T11:24:11.809Z,9.00
2022-09-05T11:26:47.694Z,8.45
2022-09-05T11:30:07.235Z,6.65
2022-09-05T11:39:12.154Z,6.93
2022-09-05T11:39:50.924Z,8.38
2022-09-05T11:40:02.804Z,5.78
2022-09-05T11:42:05.711Z,9.90
2022-09-05T11:44:41.795Z,7.43
2022-09-05T11:47:30.271Z,8.43
2022-09-05T11:50:42.863Z,7.93
2022-09-05T11:53:57.413Z,8.90
2022-09-05T11:56:28.464Z,8.65
2022-09-05T11:59:32.827Z,8.43
2022-09-05T12:02:26.389Z,8.88
2022-09-05T12:05:48.478Z,8.70
2022-09-05T12:08:28.703Z,7.70
2022-09-05T12:11:14.666Z,7.00
2022-09-05T12:13:51.254Z,5.47
2022-09-05T12:16:50.109Z,6.72
2022-09-05T12:19:49.480Z,8.15
2022-09-05T12:22:37.048Z,4.78
2022-09-05T12:27:39.634Z,8.23
2022-09-05T12:32:44.531Z,7.82
2022-09-05T12:36:06.728Z,8.60
2022-09-05T12:40:54.996Z,8.60
2022-09-05T12:40:55.264Z,9.88
2022-09-05T12:44:19.326Z,7.63
2022-09-05T12:48:39.201Z,8.20
2022-09-05T12:51:45.722Z,8.68
2022-09-05T12:54:34.085Z,8.63
2022-09-05T13:01:15.435Z,8.43
2022-09-05T13:03:02.089Z,8.25
2022-09-05T13:03:40.712Z,7.50
2022-09-05T13:06:47.051Z,7.40
2022-09-05T13:09:16.777Z,7.75
2022-09-05T13:14:57.339Z,8.63
2022-09-05T13:15:18.620Z,7.65
2022-09-05T13:18:10.478Z,9.88
2022-09-05T13:21:08.493Z,9.50
2022-09-05T13:23:50.941Z,8.40
2022-09-05T13:26:23.993Z,9.43
2022-09-05T13:29:09.917Z,6.72
2022-09-05T13:37:53.689Z,10.68
2022-09-05T13:38:20.931Z,9.25
2022-09-05T13:38:21.157Z,7.68
2022-09-05T13:40:49.517Z,8.05
2022-09-05T13:43:21.899Z,8.60
2022-09-05T13:46:07.972Z,8.30
2022-09-05T13:51:47.977Z,9.25
2022-09-05T13:54:37.239Z,5.55
2022-09-05T13:57:31.448Z,9.10
2022-09-05T14:00:27.154Z,8.80
2022-09-05T14:03:53.698Z,6.85
2022-09-05T14:06:47.205Z,7.30
2022-09-05T14:09:42.660Z,9.40
2022-09-05T14:12:29.366Z,7.50
2022-09-05T14:18:21.420Z,5.70
2022-09-05T14:21:17.067Z,5.18
2022-09-05T14:23:53.844Z,7.13
2022-09-05T14:26:35.801Z,7.15
2022-09-05T14:29:33.182Z,6.72
2022-09-05T14:37:34.449Z,6.75
2022-09-05T14:37:41.620Z,8.20
2022-09-05T14:38:49.014Z,7.15
2022-09-05T14:41:40.006Z,5.20
2022-09-05T14:45:06.221Z,8.27
2022-09-05T14:47:47.434Z,9.63
2022-09-05T14:50:51.697Z,6.43
2022-09-05T14:54:02.075Z,5.80
2022-09-05T14:58:16.212Z,7.43
2022-09-05T15:02:50.080Z,6.50
2022-09-05T15:03:00.581Z,7.20
2022-09-05T15:05:13.217Z,6.95
2022-09-05T15:07:48.120Z,6.35
2022-09-05T15:12:15.015Z,7.13
2022-09-05T15:13:41.775Z,8.38
2022-09-05T15:16:11.341Z,5.80
2022-09-05T15:18:46.914Z,5.05
2022-09-05T15:21:33.179Z,7.30
2022-09-05T15:24:01.984Z,6.25
2022-09-05T15:26:31.489Z,8.05
2022-09-05T15:29:13.780Z,8.20
2022-09-05T15:31:43.585Z,8.60
2022-09-05T15:34:20.348Z,9.50
2022-09-05T15:36:47.787Z,6.38
2022-09-05T15:39:32.123Z,5.72
2022-09-05T15:42:14.274Z,5.93
2022-09-05T15:45:06.331Z,6.90
2022-09-05T15:50:55.491Z,6.30
2022-09-05T15:53:24.857Z,7.32
2022-09-05T15:56:49.239Z,7.20
2022-09-05T15:59:16.253Z,7.50
2022-09-05T16:01:59.535Z,8.57
2022-09-05T16:10:33.422Z,7.68
2022-09-05T16:10:37.275Z,7.45
2022-09-05T16:10:42.867Z,8.10
2022-09-05T16:13:36.747Z,6.60
2022-09-05T16:23:18.224Z,9.50
2022-09-05T16:23:19.307Z,8.13
2022-09-05T16:23:28.978Z,6.25
2022-09-05T16:24:58.908Z,6.47
2022-09-05T16:28:05.437Z,5.80
2022-09-05T16:30:59.441Z,7.07
2022-09-05T16:33:29.944Z,7.38
2022-09-05T16:36:16.422Z,5.40
2022-09-05T16:38:50.068Z,8.60
2022-09-05T16:41:38.908Z,6.68
2022-09-05T16:44:25.895Z,7.35
2022-09-05T16:47:06.768Z,6.35
2022-09-05T16:53:30.363Z,7.90
2022-09-05T16:56:04.333Z,7.97
2022-09-05T16:59:17.407Z,6.18
2022-09-05T17:02:07.847Z,7.72
2022-09-05T17:05:19.745Z,8.85
2022-09-05T17:08:18.685Z,8.43
2022-09-05T17:11:18.417Z,7.40
2022-09-05T17:13:57.397Z,5.90
2022-09-05T17:16:41.492Z,6.05
2022-09-05T17:19:22.268Z,6.93
2022-09-05T17:29:29.473Z,5.30
2022-09-05T17:29:30.408Z,5.40
2022-09-05T17:33:52.485Z,7.28
2022-09-05T17:36:40.855Z,7.78
2022-09-05T17:39:20.285Z,7.25
2022-09-05T17:42:34.314Z,9.88
2022-09-05T17:45:22.725Z,6.40
2022-09-05T17:48:27.549Z,8.30
2022-09-05T17:51:13.193Z,7.28
2022-09-05T17:54:07.916Z,9.68
2022-09-05T17:56:41.437Z,6.50
2022-09-05T17:59:17.373Z,9.35
2022-09-05T18:02:02.956Z,9.85
2022-09-05T18:04:49.250Z,6.65
2022-09-05T18:07:35.228Z,6.65
2022-09-05T18:10:12.808Z,7.95
2022-09-05T18:13:32.471Z,7.03
2022-09-05T18:16:00.075Z,7.80
2022-09-05T18:21:25.834Z,9.02
2022-09-05T18:24:07.947Z,8.85
2022-09-05T18:27:28.004Z,8.10
2022-09-05T18:30:03.869Z,6.15
2022-09-05T18:32:54.269Z,8.90
2022-09-05T18:35:57.715Z,9.73
2022-09-05T18:38:49.921Z,6.15
2022-09-05T18:41:38.476Z,7.07
2022-09-05T18:44:13.285Z,8.00
2022-09-05T18:46:50.699Z,10.43
2022-09-05T18:50:24.078Z,6.78
2022-09-05T18:52:33.706Z,7.70
2022-09-05T18:56:10.652Z,5.30
2022-09-05T18:58:12.492Z,9.40
2022-09-05T19:00:44.280Z,8.38
2022-09-05T19:03:19.258Z,10.85
2022-09-05T19:06:36.412Z,11.18
2022-09-05T19:09:01.558Z,10.85
2022-09-05T19:11:35.769Z,9.70
2022-09-05T19:14:26.017Z,9.10
2022-09-05T19:17:27.464Z,9.50
2022-09-05T19:20:31.422Z,6.80
2022-09-05T19:23:10.421Z,9.05
2022-09-05T19:25:49.371Z,8.38
2022-09-05T19:36:43.930Z,7.88
2022-09-05T19:36:54.922Z,7.20
2022-09-05T19:37:07.574Z,7.93
2022-09-05T19:37:26.197Z,8.63
2022-09-05T19:44:39.021Z,6.32
2022-09-05T19:47:39.123Z,7.43
2022-09-05T19:47:41.271Z,6.72
2022-09-05T19:49:20.482Z,7.68
2022-09-05T19:52:16.846Z,7.05
2022-09-05T19:54:50.725Z,7.25
2022-09-05T19:57:39.120Z,6.50
2022-09-05T20:00:07.013Z,7.72
2022-09-05T20:02:41.536Z,6.93
2022-09-05T20:05:09.296Z,8.02
2022-09-05T20:07:51.546Z,5.85
2022-09-05T20:13:23.786Z,5.20
2022-09-05T20:15:52.560Z,5.93
2022-09-05T20:18:46.328Z,6.70
2022-09-05T20:21:39.149Z,6.07
2022-09-05T20:24:24.917Z,6.60
2022-09-05T20:26:52.241Z,5.18
2022-09-05T20:29:54.287Z,4.95
2022-09-05T20:32:39.494Z,5.05
2022-09-05T20:37:14.181Z,6.05
2022-09-05T20:43:16.110Z,5.97
2022-09-05T20:43:17.840Z,6.22
2022-09-05T20:44:22.567Z,4.80
2022-09-05T20:51:19.895Z,5.35
2022-09-05T20:54:19.061Z,6.15
2022-09-05T20:54:28.320Z,7.63
2022-09-05T20:56:21.100Z,5.82
2022-09-05T20:58:55.713Z,5.70
2022-09-05T21:01:23.743Z,6.65
2022-09-05T21:03:59.184Z,5.28
2022-09-05T21:06:45.900Z,6.97
2022-09-05T21:09:22.543Z,7.28
2022-09-05T21:11:54.356Z,7.70
2022-09-05T21:14:22.782Z,9.65
2022-09-05T21:16:56.738Z,7.10
2022-09-05T21:19:35.199Z,7.50
2022-09-05T21:22:17.199Z,7.10
2022-09-05T21:24:46.565Z,7.32
2022-09-05T21:27:22.112Z,5.50
2022-09-05T21:29:59.371Z,9.15
2022-09-05T21:32:30.282Z,6.90
2022-09-05T21:37:54.370Z,7.85
2022-09-05T21:40:21.514Z,5.82
2022-09-05T21:47:38.106Z,9.80
2022-09-05T21:47:39.158Z,9.45
2022-09-05T21:48:23.919Z,9.07
2022-09-05T21:50:55.772Z,9.27
2022-09-05T21:55:19.517Z,8.23
2022-09-05T21:59:16.895Z,7.45
2022-09-05T21:59:36.649Z,9.52
2022-09-05T22:02:07.217Z,10.05
2022-09-05T22:04:41.331Z,8.20
2022-09-05T22:07:19.489Z,9.02
2022-09-05T22:09:58.937Z,5.85
2022-09-05T22:12:31.407Z,8.15
2022-09-05T22:15:02.520Z,8.20
2022-09-05T22:17:47.134Z,6.70
2022-09-05T22:20:16.958Z,6.80
2022-09-05T22:22:45.260Z,9.75
2022-09-05T22:25:29.597Z,8.52
2022-09-05T22:28:06.482Z,9.35
2022-09-05T22:30:37.350Z,10.30
2022-09-05T22:33:05.530Z,8.63
2022-09-05T22:35:37.264Z,8.20
2022-09-05T22:38:10.585Z,9.15
2022-09-05T22:40:41.060Z,8.50
2022-09-05T22:43:09.938Z,7.97
2022-09-05T22:45:39.474Z,7.57
2022-09-05T22:48:09.439Z,10.52
2022-09-05T22:50:55.313Z,9.88
2022-09-05T22:53:22.425Z,12.60
2022-09-05T22:55:59.656Z,11.82
2022-09-05T22:58:27.257Z,11.93
2022-09-05T23:00:55.812Z,10.85
2022-09-05T23:03:22.629Z,12.10
2022-09-05T23:05:49.485Z,13.15
2022-09-05T23:08:16.532Z,14.38
2022-09-05T23:10:43.337Z,13.93
2022-09-05T23:13:11.199Z,14.27
2022-09-05T23:15:38.835Z,14.82
2022-09-05T23:18:06.156Z,17.65
2022-09-05T23:20:34.032Z,14.80
2022-09-05T23:23:06.144Z,16.17
2022-09-05T23:25:34.310Z,16.17
2022-09-05T23:28:09.228Z,12.30
2022-09-05T23:30:37.555Z,13.13
2022-09-05T23:33:09.073Z,14.30
2022-09-05T23:35:36.324Z,14.95
2022-09-05T23:38:03.243Z,13.20
2022-09-05T23:40:31.272Z,14.20
2022-09-05T23:43:16.477Z,13.02
2022-09-05T23:45:47.562Z,9.20
2022-09-05T23:48:14.758Z,13.18
2022-09-05T23:50:41.629Z,11.73
2022-09-05T23:53:10.748Z,12.10
2022-09-05T23:55:37.529Z,14.60
2022-09-05T23:58:04.366Z,11.07
